Time;durP1;ratioP1;P1;durP2;ratioP2;P2;SDS_P1;SDS_P2;PMS_P1;PMS_P2;Temp;Humidity;BMP_temperature;BMP_pressure;BME280_temperature;BME280_humidity;BME280_pressure;Samples;Min_cycle;Max_cycle;Signal;HPM_P1;HPM_P2
2022/09/11 00:00:50;;;;;;;10.23;6.13;;;17.90;99.90;;;;;;5030934;28;20022;-66
2022/09/11 00:03:17;;;;;;;8.82;5.97;;;17.90;99.90;;;;;;5032708;28;20373;-65
2022/09/11 00:05:43;;;;;;;8.75;6.00;;;17.80;99.90;;;;;;5015221;28;20393;-66
2022/09/11 00:08:10;;;;;;;8.52;6.30;;;17.80;99.90;;;;;;5031682;28;20026;-66
2022/09/11 00:10:43;;;;;;;7.88;5.25;;;17.80;99.90;;;;;;5031067;28;20044;-66
2022/09/11 00:13:11;;;;;;;11.07;6.20;;;17.80;99.90;;;;;;5021414;28;20030;-66
2022/09/11 00:15:43;;;;;;;9.60;5.75;;;17.80;99.90;;;;;;5032618;28;20033;-66
2022/09/11 00:18:11;;;;;;;9.02;6.30;;;17.80;99.90;;;;;;5032167;28;20021;-66
2022/09/11 00:20:38;;;;;;;8.18;5.90;;;17.70;99.90;;;;;;5031973;28;21225;-65
2022/09/11 00:23:04;;;;;;;11.30;6.55;;;17.60;99.90;;;;;;5029325;28;20029;-66
2022/09/11 00:25:34;;;;;;;9.38;6.65;;;17.70;99.90;;;;;;5018637;28;20422;-66
2022/09/11 00:28:01;;;;;;;11.90;6.78;;;17.70;99.90;;;;;;5028928;28;20026;-67
2022/09/11 00:30:27;;;;;;;7.90;6.35;;;17.70;99.90;;;;;;5022062;28;20280;-66
2022/09/11 00:32:52;;;;;;;8.63;6.18;;;17.70;99.90;;;;;;5032597;28;20025;-66
2022/09/11 00:35:18;;;;;;;9.68;6.40;;;17.60;99.90;;;;;;5032222;28;20544;-65
2022/09/11 00:37:44;;;;;;;8.63;6.03;;;17.60;99.90;;;;;;5031437;28;20408;-65
2022/09/11 00:40:09;;;;;;;8.10;6.18;;;17.60;99.90;;;;;;5025758;28;20022;-66
2022/09/11 00:42:35;;;;;;;8.85;6.93;;;17.60;99.90;;;;;;5031810;28;20469;-65
2022/09/11 00:45:05;;;;;;;9.68;7.47;;;17.60;99.90;;;;;;5032407;28;20030;-66
2022/09/11 00:47:32;;;;;;;9.27;7.85;;;17.60;99.90;;;;;;5029045;28;20995;-66
2022/09/11 00:50:08;;;;;;;8.30;6.50;;;17.50;99.90;;;;;;5032423;28;20381;-65
2022/09/11 00:52:39;;;;;;;11.85;7.60;;;17.50;99.90;;;;;;5031795;28;20103;-66
2022/09/11 00:55:11;;;;;;;10.73;7.70;;;17.50;99.90;;;;;;5011421;28;20038;-66
2022/09/11 00:57:53;;;;;;;8.20;6.68;;;17.50;99.90;;;;;;5025456;28;20025;-66
2022/09/11 01:00:18;;;;;;;12.43;7.85;;;17.50;99.90;;;;;;5027354;28;20026;-65
2022/09/11 01:02:48;;;;;;;10.48;7.78;;;17.60;99.90;;;;;;5027735;28;20029;-66
2022/09/11 01:05:15;;;;;;;10.65;7.85;;;17.50;99.90;;;;;;5035170;28;20041;-65
2022/09/11 01:07:42;;;;;;;9.85;7.80;;;17.50;99.90;;;;;;5032909;28;20025;-66
2022/09/11 01:10:09;;;;;;;10.82;8.18;;;17.60;99.90;;;;;;5031130;28;20036;-66
2022/09/11 01:12:45;;;;;;;11.25;8.55;;;17.60;99.90;;;;;;5016440;28;20034;-66
2022/09/11 01:15:28;;;;;;;11.07;7.63;;;17.60;99.90;;;;;;5025214;28;20037;-66
2022/09/11 01:18:08;;;;;;;13.38;7.70;;;17.60;99.90;;;;;;5033515;28;20033;-66
2022/09/11 01:20:46;;;;;;;8.95;6.63;;;17.60;99.90;;;;;;5035229;28;20030;-66
2022/09/11 01:23:43;;;;;;;9.82;6.55;;;17.60;99.90;;;;;;5030543;28;20080;-66
2022/09/11 01:26:33;;;;;;;10.93;6.55;;;17.50;99.90;;;;;;5033767;28;20095;-66
2022/09/11 01:29:16;;;;;;;8.70;6.30;;;17.50;99.90;;;;;;5032579;28;20049;-67
2022/09/11 01:32:05;;;;;;;11.18;7.78;;;17.50;99.90;;;;;;5027749;28;20086;-66
2022/09/11 01:34:44;;;;;;;10.65;5.97;;;17.50;99.90;;;;;;5020739;28;20467;-66
2022/09/11 01:37:22;;;;;;;9.43;6.57;;;17.40;99.90;;;;;;5029573;28;20059;-66
2022/09/11 01:39:55;;;;;;;10.07;6.78;;;17.40;99.90;;;;;;5022067;28;20026;-65
2022/09/11 01:42:23;;;;;;;9.73;6.60;;;17.40;99.90;;;;;;5030926;28;20037;-67
2022/09/11 01:44:56;;;;;;;8.20;6.38;;;17.40;99.90;;;;;;5014172;28;20095;-66
2022/09/11 01:47:22;;;;;;;10.02;7.00;;;17.40;99.90;;;;;;5029739;28;20152;-65
2022/09/11 01:49:55;;;;;;;7.68;6.72;;;17.30;99.90;;;;;;5031095;28;20030;-65
2022/09/11 01:52:26;;;;;;;9.75;6.85;;;17.30;99.90;;;;;;5030644;28;20056;-66
2022/09/11 01:55:10;;;;;;;10.43;6.53;;;17.30;99.90;;;;;;5014610;28;20099;-66
2022/09/11 01:57:41;;;;;;;8.77;6.68;;;17.30;99.90;;;;;;5031747;28;20028;-66
2022/09/11 02:00:10;;;;;;;11.30;6.72;;;17.30;99.90;;;;;;5030400;28;20027;-66
2022/09/11 02:02:42;;;;;;;8.68;6.00;;;17.30;99.90;;;;;;5029639;28;20083;-65
2022/09/11 02:05:15;;;;;;;7.10;5.47;;;17.30;99.90;;;;;;5011343;28;20038;-66
2022/09/11 02:07:47;;;;;;;7.95;6.60;;;17.20;99.90;;;;;;5031227;28;20121;-65
2022/09/11 02:10:22;;;;;;;9.15;6.20;;;17.20;99.90;;;;;;5013307;28;20029;-65
2022/09/11 02:13:09;;;;;;;7.68;6.00;;;17.10;99.90;;;;;;5012703;28;20060;-66
2022/09/11 02:15:48;;;;;;;7.57;6.03;;;17.10;99.90;;;;;;5029854;28;20441;-65
2022/09/11 02:18:21;;;;;;;7.88;5.82;;;17.10;99.90;;;;;;5028561;28;20033;-65
2022/09/11 02:20:46;;;;;;;8.18;6.00;;;17.10;99.90;;;;;;5030267;28;20034;-65
2022/09/11 02:23:14;;;;;;;7.68;6.47;;;17.00;99.90;;;;;;5013968;28;20021;-66
2022/09/11 02:25:40;;;;;;;8.48;6.60;;;17.00;99.90;;;;;;5017407;28;20030;-66
2022/09/11 02:28:05;;;;;;;10.40;6.75;;;17.00;99.90;;;;;;5032845;28;20044;-66
2022/09/11 02:30:31;;;;;;;8.93;6.68;;;16.90;99.90;;;;;;5034600;28;20076;-65
2022/09/11 02:32:57;;;;;;;9.88;8.02;;;16.90;99.90;;;;;;5016264;28;20020;-66
2022/09/11 02:35:29;;;;;;;9.57;7.18;;;16.90;99.90;;;;;;5035046;28;20079;-66
2022/09/11 02:38:21;;;;;;;8.68;6.85;;;16.90;99.90;;;;;;5024355;28;20037;-65
2022/09/11 02:41:07;;;;;;;8.20;6.50;;;16.80;99.90;;;;;;5034722;28;20400;-65
2022/09/11 02:43:56;;;;;;;10.93;7.03;;;16.80;99.90;;;;;;5032344;28;20034;-65
2022/09/11 02:46:34;;;;;;;12.48;8.07;;;16.70;99.90;;;;;;5025990;28;20117;-66
2022/09/11 02:49:21;;;;;;;9.40;7.00;;;16.70;99.90;;;;;;5006785;28;20037;-65
2022/09/11 02:51:58;;;;;;;8.25;6.30;;;16.60;99.90;;;;;;5025732;28;20038;-65
2022/09/11 02:54:46;;;;;;;8.32;6.60;;;16.60;99.90;;;;;;5034544;28;20041;-65
2022/09/11 02:57:48;;;;;;;10.13;6.75;;;16.60;99.90;;;;;;5033696;28;20026;-65
2022/09/11 03:00:14;;;;;;;9.07;7.55;;;16.60;99.90;;;;;;5019488;28;20386;-66
2022/09/11 03:02:42;;;;;;;11.52;7.05;;;16.50;99.90;;;;;;5031939;28;20060;-66
2022/09/11 03:05:08;;;;;;;10.35;6.35;;;16.50;99.90;;;;;;5033525;28;20034;-67
2022/09/11 03:07:34;;;;;;;9.60;6.55;;;16.50;99.90;;;;;;5013928;28;20026;-66
2022/09/11 03:10:00;;;;;;;8.85;7.38;;;16.40;99.90;;;;;;5014444;28;20052;-65
2022/09/11 03:12:26;;;;;;;10.63;7.32;;;16.40;99.90;;;;;;5018796;28;20101;-66
2022/09/11 03:14:51;;;;;;;9.40;7.10;;;16.50;99.90;;;;;;5033278;28;20025;-65
2022/09/11 03:17:18;;;;;;;9.25;7.57;;;16.50;99.90;;;;;;5033691;28;20056;-65
2022/09/11 03:19:44;;;;;;;10.20;8.45;;;16.40;99.90;;;;;;5034106;28;20032;-66
2022/09/11 03:22:15;;;;;;;10.60;7.95;;;16.40;99.90;;;;;;5029947;28;20021;-66
2022/09/11 03:24:41;;;;;;;12.00;8.45;;;16.30;99.90;;;;;;5033089;28;20037;-65
2022/09/11 03:27:07;;;;;;;10.95;7.97;;;16.30;99.90;;;;;;5034548;28;20041;-65
2022/09/11 03:29:32;;;;;;;8.95;7.72;;;16.30;99.90;;;;;;5031633;28;20132;-65
2022/09/11 03:31:58;;;;;;;14.57;7.93;;;16.30;99.90;;;;;;5025193;28;20156;-65
2022/09/11 03:34:24;;;;;;;10.80;8.02;;;16.20;99.90;;;;;;5024448;28;20029;-65
2022/09/11 03:36:50;;;;;;;11.43;8.15;;;16.20;99.90;;;;;;5026099;28;20431;-65
2022/09/11 03:39:16;;;;;;;11.15;8.43;;;16.20;99.90;;;;;;5026797;28;20041;-66
2022/09/11 03:41:42;;;;;;;10.23;8.35;;;16.20;99.90;;;;;;5017921;28;20057;-66
2022/09/11 03:44:07;;;;;;;10.48;8.07;;;16.10;99.90;;;;;;5023658;28;20473;-66
2022/09/11 03:46:33;;;;;;;12.32;8.63;;;16.10;99.90;;;;;;5015712;28;20029;-65
2022/09/11 03:48:59;;;;;;;11.80;8.70;;;16.10;99.90;;;;;;5031355;28;20037;-65
2022/09/11 03:51:25;;;;;;;11.60;8.63;;;16.20;99.90;;;;;;5032105;28;20036;-65
2022/09/11 03:53:51;;;;;;;10.77;8.13;;;16.10;99.90;;;;;;5032606;28;20389;-65
2022/09/11 03:56:17;;;;;;;10.40;7.95;;;16.10;99.90;;;;;;5023035;28;20032;-66
2022/09/11 03:58:43;;;;;;;10.57;8.32;;;16.00;99.90;;;;;;5028603;28;20022;-65
2022/09/11 04:01:14;;;;;;;10.23;8.45;;;16.00;99.90;;;;;;5032519;28;20033;-65
2022/09/11 04:03:41;;;;;;;11.93;8.68;;;16.00;99.90;;;;;;5028469;28;20065;-66
2022/09/11 04:06:07;;;;;;;10.05;8.23;;;16.00;99.90;;;;;;5032121;28;20444;-66
2022/09/11 04:08:33;;;;;;;11.63;8.63;;;16.00;99.90;;;;;;5021527;28;20057;-66
2022/09/11 04:11:01;;;;;;;11.30;8.40;;;16.00;99.90;;;;;;5020946;28;20021;-66
2022/09/11 04:13:29;;;;;;;11.80;9.10;;;15.90;99.90;;;;;;5032220;28;20037;-66
2022/09/11 04:16:04;;;;;;;13.45;9.20;;;15.90;99.90;;;;;;5032095;28;20025;-65
2022/09/11 04:18:33;;;;;;;;;;;15.90;99.90;;;;;;5031017;28;20021;-65
2022/09/11 04:21:05;;;;;;;10.80;7.88;;;15.90;99.90;;;;;;5031635;28;20271;-65
2022/09/11 04:23:32;;;;;;;10.88;8.63;;;15.80;99.90;;;;;;5023590;28;20041;-65
2022/09/11 04:25:59;;;;;;;11.40;8.18;;;15.80;99.90;;;;;;5024967;28;20037;-66
2022/09/11 04:28:27;;;;;;;11.38;8.13;;;15.80;99.90;;;;;;5025357;28;20080;-66
2022/09/11 04:30:53;;;;;;;11.30;8.50;;;15.80;99.90;;;;;;5015978;28;20030;-66
2022/09/11 04:33:18;;;;;;;13.27;9.52;;;15.80;99.90;;;;;;5031870;28;20032;-65
2022/09/11 04:35:44;;;;;;;15.85;10.48;;;15.80;99.90;;;;;;5023455;28;20034;-65
2022/09/11 04:38:09;;;;;;;14.27;9.70;;;15.80;99.90;;;;;;5026352;28;20040;-65
2022/09/11 04:40:35;;;;;;;16.27;10.50;;;15.80;99.90;;;;;;5024357;28;20030;-65
2022/09/11 04:43:01;;;;;;;14.77;10.23;;;15.70;99.90;;;;;;5015259;28;20021;-65
2022/09/11 04:45:32;;;;;;;15.43;9.70;;;15.70;99.90;;;;;;5025967;28;20046;-65
2022/09/11 04:47:58;;;;;;;15.60;9.82;;;15.70;99.90;;;;;;5029896;28;20090;-65
2022/09/11 04:50:24;;;;;;;17.75;9.93;;;15.70;99.90;;;;;;5012440;28;20118;-65
2022/09/11 04:52:50;;;;;;;15.05;10.48;;;15.80;99.90;;;;;;5015104;28;20117;-66
2022/09/11 04:55:15;;;;;;;15.20;10.63;;;15.90;99.90;;;;;;5031737;28;20128;-66
2022/09/11 04:57:41;;;;;;;15.00;10.13;;;15.90;99.90;;;;;;5028450;28;20040;-66
2022/09/11 05:00:08;;;;;;;17.30;11.15;;;15.90;99.90;;;;;;5022643;28;20022;-66
2022/09/11 05:02:33;;;;;;;15.68;10.13;;;15.90;99.90;;;;;;5029434;28;20033;-66
2022/09/11 05:04:59;;;;;;;16.90;10.60;;;15.90;99.90;;;;;;5028975;28;20408;-65
2022/09/11 05:07:24;;;;;;;15.35;10.00;;;16.00;99.90;;;;;;5029945;28;20414;-65
2022/09/11 05:09:53;;;;;;;18.23;11.75;;;16.00;99.90;;;;;;5031911;28;20562;-65
2022/09/11 05:12:20;;;;;;;18.15;11.90;;;16.00;99.90;;;;;;5028573;28;20018;-65
2022/09/11 05:14:45;;;;;;;16.73;11.43;;;16.00;99.90;;;;;;5013061;28;20037;-66
2022/09/11 05:17:12;;;;;;;17.55;11.77;;;16.10;99.90;;;;;;5030444;28;20035;-66
2022/09/11 05:19:38;;;;;;;15.70;11.18;;;16.10;99.90;;;;;;5031071;28;20483;-66
2022/09/11 05:22:05;;;;;;;18.42;11.25;;;16.20;99.90;;;;;;5031588;28;20030;-66
2022/09/11 05:24:31;;;;;;;19.10;12.23;;;16.30;99.90;;;;;;5030633;28;20046;-66
2022/09/11 05:27:00;;;;;;;18.08;12.13;;;16.30;99.90;;;;;;5030782;28;20029;-66
2022/09/11 05:29:28;;;;;;;19.00;11.70;;;16.30;99.90;;;;;;5018734;28;20514;-65
2022/09/11 05:31:57;;;;;;;17.25;11.35;;;16.40;99.90;;;;;;5028920;28;20053;-65
2022/09/11 05:34:26;;;;;;;22.80;13.65;;;16.40;99.90;;;;;;5030861;28;20033;-65
2022/09/11 05:36:51;;;;;;;27.38;13.88;;;16.50;99.90;;;;;;5024055;28;20033;-66
2022/09/11 05:39:17;;;;;;;23.55;13.88;;;16.50;99.90;;;;;;5012267;28;20033;-65
2022/09/11 05:41:42;;;;;;;21.17;13.55;;;16.60;99.90;;;;;;5026274;28;20029;-66
2022/09/11 05:44:08;;;;;;;22.75;14.98;;;16.60;99.90;;;;;;5030310;28;20095;-66
2022/09/11 05:46:33;;;;;;;23.13;14.95;;;16.70;99.90;;;;;;5029742;28;20022;-65
2022/09/11 05:48:59;;;;;;;20.77;14.57;;;16.70;99.90;;;;;;5030160;28;20025;-66
2022/09/11 05:51:24;;;;;;;20.70;14.68;;;16.80;99.90;;;;;;5031441;28;20045;-66
2022/09/11 05:53:57;;;;;;;25.80;15.50;;;16.80;99.90;;;;;;5030327;28;20997;-65
2022/09/11 05:56:24;;;;;;;22.85;15.02;;;16.80;99.90;;;;;;5022019;28;20029;-66
2022/09/11 05:58:52;;;;;;;24.65;15.10;;;16.80;99.90;;;;;;5033997;28;20030;-65
2022/09/11 06:01:20;;;;;;;22.88;16.23;;;16.80;99.90;;;;;;5034158;28;20120;-66
2022/09/11 06:03:48;;;;;;;22.42;15.15;;;16.80;99.90;;;;;;5035424;28;20048;-66
2022/09/11 06:06:14;;;;;;;24.48;15.13;;;16.90;99.90;;;;;;5035154;28;20038;-66
2022/09/11 06:08:42;;;;;;;23.75;15.73;;;16.90;99.90;;;;;;5034769;28;20021;-66
2022/09/11 06:11:09;;;;;;;22.58;15.75;;;17.00;99.90;;;;;;5033033;28;20068;-65
2022/09/11 06:13:40;;;;;;;19.27;13.27;;;17.00;99.90;;;;;;5034028;28;20088;-66
2022/09/11 06:16:25;;;;;;;22.83;14.98;;;17.00;99.90;;;;;;5034766;28;20029;-66
2022/09/11 06:18:53;;;;;;;21.02;13.07;;;17.10;99.90;;;;;;5032626;28;20041;-66
2022/09/11 06:21:23;;;;;;;20.98;14.13;;;17.10;99.90;;;;;;5034887;28;20388;-66
2022/09/11 06:23:50;;;;;;;25.17;15.30;;;17.10;99.90;;;;;;5033982;28;20030;-66
2022/09/11 06:26:20;;;;;;;20.92;13.93;;;17.20;99.90;;;;;;5027300;28;20038;-66
2022/09/11 06:28:46;;;;;;;23.77;14.57;;;17.20;99.90;;;;;;5026928;28;20493;-66
2022/09/11 06:31:15;;;;;;;21.10;14.10;;;17.20;99.90;;;;;;5035026;28;20082;-66
2022/09/11 06:33:41;;;;;;;22.63;13.30;;;17.30;99.90;;;;;;5033295;28;20523;-66
2022/09/11 06:36:10;;;;;;;25.60;14.65;;;17.40;99.90;;;;;;5033710;28;20041;-66
2022/09/11 06:38:37;;;;;;;22.85;14.18;;;17.40;99.90;;;;;;5016014;28;20421;-66
2022/09/11 06:41:05;;;;;;;23.58;15.85;;;17.40;99.90;;;;;;5034911;28;20308;-66
2022/09/11 06:43:31;;;;;;;19.90;13.50;;;17.40;99.90;;;;;;5033217;28;20026;-66
2022/09/11 06:46:08;;;;;;;22.02;14.02;;;17.40;99.90;;;;;;5034589;28;20429;-65
2022/09/11 06:48:34;;;;;;;19.60;15.45;;;17.50;99.90;;;;;;5024258;28;20396;-65
2022/09/11 06:51:05;;;;;;;17.63;12.73;;;17.50;99.90;;;;;;5016158;28;20364;-66
2022/09/11 06:53:30;;;;;;;18.50;12.30;;;17.40;99.90;;;;;;5025083;28;20022;-66
2022/09/11 06:56:04;;;;;;;17.63;12.60;;;17.40;99.90;;;;;;5014712;28;20056;-66
2022/09/11 06:58:30;;;;;;;20.20;13.30;;;17.40;99.90;;;;;;5025423;28;20032;-65
2022/09/11 07:01:04;;;;;;;19.25;13.13;;;17.50;99.90;;;;;;5032374;28;20164;-66
2022/09/11 07:03:30;;;;;;;19.23;13.10;;;17.50;99.90;;;;;;5011291;28;20048;-66
2022/09/11 07:05:55;;;;;;;17.02;10.95;;;17.50;99.90;;;;;;5033357;28;20120;-66
2022/09/11 07:08:21;;;;;;;21.52;13.63;;;17.60;99.90;;;;;;5026445;28;20029;-66
2022/09/11 07:10:46;;;;;;;20.48;12.82;;;17.60;99.90;;;;;;5024489;28;20554;-66
2022/09/11 07:13:12;;;;;;;21.80;13.55;;;17.60;99.90;;;;;;5033280;28;20488;-65
2022/09/11 07:15:37;;;;;;;17.23;12.10;;;17.60;99.90;;;;;;5033490;28;20128;-65
2022/09/11 07:18:04;;;;;;;17.75;11.93;;;17.60;99.90;;;;;;5033245;28;20025;-66
2022/09/11 07:20:30;;;;;;;17.85;12.68;;;17.70;99.90;;;;;;5032037;28;20029;-66
2022/09/11 07:22:57;;;;;;;19.80;13.52;;;17.80;99.90;;;;;;5020197;28;20026;-67
2022/09/11 07:25:23;;;;;;;19.00;12.93;;;17.80;99.90;;;;;;5015182;28;20087;-68
2022/09/11 07:27:50;;;;;;;20.88;12.75;;;17.80;99.90;;;;;;5032736;28;20400;-68
2022/09/11 07:30:17;;;;;;;16.27;12.00;;;17.80;99.90;;;;;;5019209;28;20100;-68
2022/09/11 07:32:43;;;;;;;17.80;10.70;;;17.80;99.90;;;;;;5032541;28;20109;-67
2022/09/11 07:35:08;;;;;;;16.02;10.95;;;17.80;99.90;;;;;;5033764;28;20117;-67
2022/09/11 07:37:34;;;;;;;17.52;11.90;;;17.90;99.90;;;;;;5026292;28;20033;-67
2022/09/11 07:40:00;;;;;;;15.25;11.00;;;17.90;99.90;;;;;;5033752;28;20029;-67
2022/09/11 07:42:27;;;;;;;17.73;11.07;;;18.00;99.90;;;;;;5033101;28;20477;-67
2022/09/11 07:44:53;;;;;;;14.32;10.50;;;18.10;99.90;;;;;;5033850;28;20037;-66
2022/09/11 07:47:19;;;;;;;14.05;10.50;;;18.20;99.90;;;;;;5030541;28;20021;-66
2022/09/11 07:49:47;;;;;;;17.73;11.50;;;18.20;99.90;;;;;;5033254;28;20029;-66
2022/09/11 07:52:14;;;;;;;15.73;11.05;;;18.30;99.90;;;;;;5032563;28;20076;-67
2022/09/11 07:54:39;;;;;;;15.65;10.95;;;18.30;99.90;;;;;;5026795;28;20559;-66
2022/09/11 07:57:05;;;;;;;13.48;10.52;;;18.40;99.90;;;;;;5016016;28;20532;-67
2022/09/11 07:59:30;;;;;;;16.48;11.20;;;18.50;99.90;;;;;;5017206;28;20057;-70
2022/09/11 08:01:56;;;;;;;13.35;9.77;;;18.60;99.90;;;;;;5016404;28;20689;-68
2022/09/11 08:04:22;;;;;;;24.20;11.23;;;18.70;99.90;;;;;;5027102;28;20044;-68
2022/09/11 08:06:47;;;;;;;16.70;9.70;;;18.80;99.90;;;;;;5022332;28;20389;-67
2022/09/11 08:09:16;;;;;;;13.63;9.75;;;18.90;99.90;;;;;;5005878;28;20029;-69
2022/09/11 08:11:45;;;;;;;15.25;9.82;;;19.00;99.90;;;;;;5026244;28;20372;-68
2022/09/11 08:14:12;;;;;;;15.00;10.45;;;19.10;99.90;;;;;;5028117;28;20032;-69
2022/09/11 08:16:39;;;;;;;15.27;10.07;;;19.20;99.90;;;;;;5023839;28;20037;-68
2022/09/11 08:19:06;;;;;;;12.43;9.15;;;19.30;99.90;;;;;;5018361;28;20029;-69
2022/09/11 08:21:32;;;;;;;18.67;11.55;;;19.40;99.90;;;;;;5023886;28;20112;-68
2022/09/11 08:23:57;;;;;;;13.32;9.77;;;19.50;99.90;;;;;;5025946;28;20034;-68
2022/09/11 08:26:27;;;;;;;12.65;9.25;;;19.40;99.90;;;;;;5023880;28;20093;-69
2022/09/11 08:28:54;;;;;;;18.13;10.48;;;19.50;99.90;;;;;;5023241;28;20049;-68
2022/09/11 08:31:21;;;;;;;13.65;9.45;;;19.60;99.90;;;;;;5018833;28;20029;-68
2022/09/11 08:33:48;;;;;;;15.68;10.98;;;19.60;99.90;;;;;;5022951;28;20026;-69
2022/09/11 08:36:14;;;;;;;13.88;9.90;;;19.60;99.90;;;;;;5027871;28;20033;-68
2022/09/11 08:38:40;;;;;;;13.73;10.20;;;19.60;99.60;;;;;;5026172;28;20030;-69
2022/09/11 08:41:24;;;;;;;15.35;9.93;;;19.60;99.90;;;;;;5031244;28;20065;-68
2022/09/11 08:43:55;;;;;;;12.90;8.93;;;19.60;99.80;;;;;;5022755;28;20029;-68
2022/09/11 08:46:25;;;;;;;13.70;10.20;;;19.60;99.70;;;;;;5018925;28;20034;-69
2022/09/11 08:49:00;;;;;;;12.00;8.85;;;19.60;99.60;;;;;;5025424;28;20405;-68
2022/09/11 08:51:26;;;;;;;13.82;9.90;;;19.50;99.60;;;;;;5017463;28;20033;-68
2022/09/11 08:53:54;;;;;;;12.40;8.77;;;19.50;99.60;;;;;;5020982;28;20029;-68
2022/09/11 08:56:22;;;;;;;13.18;9.75;;;19.50;99.90;;;;;;5014130;28;20033;-69
2022/09/11 08:59:17;;;;;;;16.23;9.98;;;19.50;99.70;;;;;;5024348;28;20033;-69
2022/09/11 09:02:19;;;;;;;13.60;9.82;;;19.50;99.70;;;;;;5018073;28;20022;-68
2022/09/11 09:05:13;;;;;;;12.18;8.98;;;19.60;99.70;;;;;;5014369;28;20432;-68
2022/09/11 09:08:00;;;;;;;11.45;8.55;;;19.60;99.50;;;;;;5017188;28;20029;-68
2022/09/11 09:11:07;;;;;;;11.65;8.82;;;19.60;99.40;;;;;;5020297;28;20413;-71
2022/09/11 09:14:10;;;;;;;12.80;9.60;;;19.60;99.40;;;;;;4933192;28;20049;-68
2022/09/11 09:17:18;;;;;;;12.07;8.20;;;19.70;99.40;;;;;;5013631;28;20588;-69
2022/09/11 09:19:55;;;;;;;13.15;8.80;;;19.70;99.50;;;;;;5010415;28;20045;-69
2022/09/11 09:22:32;;;;;;;9.95;8.18;;;19.80;99.30;;;;;;5028909;28;20554;-70
2022/09/11 09:25:03;;;;;;;11.15;8.13;;;19.90;99.30;;;;;;5022720;28;20044;-69
2022/09/11 09:27:37;;;;;;;11.70;8.27;;;19.90;99.10;;;;;;5025245;28;20100;-69
2022/09/11 09:30:06;;;;;;;10.00;8.00;;;20.00;99.20;;;;;;5025699;28;20130;-69
2022/09/11 09:32:44;;;;;;;11.32;8.32;;;20.10;98.80;;;;;;5013062;28;20518;-69
2022/09/11 09:35:18;;;;;;;10.07;7.18;;;20.10;98.90;;;;;;5031559;28;20060;-69
2022/09/11 09:37:44;;;;;;;11.07;8.15;;;20.20;98.80;;;;;;5028132;28;20112;-69
2022/09/11 09:40:15;;;;;;;11.65;8.13;;;20.30;98.70;;;;;;5019737;28;20492;-68
2022/09/11 09:42:59;;;;;;;9.40;7.45;;;20.30;98.50;;;;;;5024076;28;20025;-69
2022/09/11 09:45:43;;;;;;;9.57;7.60;;;20.30;98.20;;;;;;5020038;28;20037;-68
2022/09/11 09:48:10;;;;;;;10.30;7.20;;;20.20;98.00;;;;;;5020015;28;20029;-65
2022/09/11 09:50:42;;;;;;;12.13;8.52;;;20.10;98.10;;;;;;5020791;28;20453;-67
2022/09/11 09:53:14;;;;;;;10.88;8.57;;;20.00;98.20;;;;;;5020135;28;20075;-68
2022/09/11 09:55:41;;;;;;;10.77;8.77;;;20.00;98.30;;;;;;5009975;28;20057;-69
2022/09/11 09:58:07;;;;;;;12.32;8.38;;;19.90;98.40;;;;;;5023860;28;20120;-70
2022/09/11 10:00:36;;;;;;;12.85;8.60;;;19.80;98.30;;;;;;5026622;28;20540;-67
2022/09/11 10:03:25;;;;;;;10.02;7.85;;;19.90;98.50;;;;;;5025641;28;20033;-67
2022/09/11 10:05:53;;;;;;;11.30;7.95;;;20.10;98.50;;;;;;5018354;28;20034;-69
2022/09/11 10:08:39;;;;;;;11.05;8.20;;;20.20;98.40;;;;;;5019092;28;20048;-70
2022/09/11 10:11:12;;;;;;;11.40;8.30;;;20.30;98.30;;;;;;5021193;28;20092;-69
2022/09/11 10:13:40;;;;;;;10.05;7.82;;;20.40;98.20;;;;;;5023875;28;20075;-68
2022/09/11 10:16:19;;;;;;;12.90;8.43;;;20.40;97.90;;;;;;5019485;28;20033;-68
2022/09/11 10:18:46;;;;;;;11.52;7.63;;;20.40;97.80;;;;;;5027321;28;20117;-67
2022/09/11 10:21:11;;;;;;;11.30;7.93;;;20.40;97.80;;;;;;5022686;28;20100;-68
2022/09/11 10:23:52;;;;;;;12.25;7.20;;;20.30;97.60;;;;;;5027424;28;20105;-67
2022/09/11 10:26:23;;;;;;;9.55;7.10;;;20.30;97.60;;;;;;5028569;28;20029;-67
2022/09/11 10:28:49;;;;;;;9.50;7.90;;;20.30;97.60;;;;;;5022661;28;20045;-67
2022/09/11 10:31:16;;;;;;;10.80;7.25;;;20.20;97.60;;;;;;5025530;28;20033;-64
2022/09/11 10:33:50;;;;;;;10.00;7.82;;;20.30;97.90;;;;;;5024659;28;20030;-66
2022/09/11 10:36:26;;;;;;;10.68;7.88;;;20.40;97.70;;;;;;5030315;28;20582;-66
2022/09/11 10:38:52;;;;;;;10.23;8.20;;;20.40;97.80;;;;;;5011594;28;20033;-64
2022/09/11 10:41:21;;;;;;;11.00;7.85;;;20.50;97.90;;;;;;5021176;28;20415;-66
2022/09/11 10:44:01;;;;;;;11.40;8.20;;;20.60;97.90;;;;;;5033233;28;20480;-66
2022/09/11 10:46:41;;;;;;;13.70;9.30;;;20.70;98.00;;;;;;5025283;28;20068;-66
2022/09/11 10:49:20;;;;;;;13.18;9.57;;;20.80;97.80;;;;;;5035688;28;20024;-65
2022/09/11 10:52:14;;;;;;;10.80;8.10;;;20.90;97.70;;;;;;5028092;28;20029;-66
2022/09/11 10:54:52;;;;;;;10.57;7.35;;;21.10;97.70;;;;;;5035913;28;20086;-65
2022/09/11 10:57:47;;;;;;;9.95;7.10;;;21.20;97.40;;;;;;5033398;28;20032;-66
2022/09/11 11:00:23;;;;;;;9.70;7.25;;;21.30;97.10;;;;;;5027075;28;20033;-66
2022/09/11 11:02:53;;;;;;;11.85;7.03;;;21.30;97.00;;;;;;5019541;28;20041;-66
2022/09/11 11:05:25;;;;;;;9.07;6.70;;;21.30;96.70;;;;;;5033155;28;20034;-68
2022/09/11 11:07:54;;;;;;;10.20;6.55;;;21.30;96.40;;;;;;5011475;28;20030;-67
2022/09/11 11:10:55;;;;;;;8.57;6.50;;;21.20;96.60;;;;;;5025491;28;20113;-66
2022/09/11 11:13:45;;;;;;;8.30;6.22;;;21.20;96.50;;;;;;5023263;28;20250;-68
2022/09/11 11:16:32;;;;;;;10.43;7.22;;;21.10;96.60;;;;;;5028443;28;20033;-67
2022/09/11 11:19:23;;;;;;;8.10;6.72;;;21.00;96.70;;;;;;5030620;28;20029;-68
2022/09/11 11:22:20;;;;;;;10.65;6.80;;;21.00;96.90;;;;;;5014919;28;20044;-68
2022/09/11 11:25:15;;;;;;;8.57;6.53;;;21.00;96.80;;;;;;5010150;28;20043;-68
2022/09/11 11:28:05;;;;;;;8.75;6.65;;;20.90;96.70;;;;;;5007959;28;20044;-68
2022/09/11 11:31:20;;;;;;;7.75;6.63;;;20.90;96.90;;;;;;5019466;28;20049;-69
2022/09/11 11:34:08;;;;;;;9.57;6.82;;;20.80;97.00;;;;;;4955916;28;20150;-69
2022/09/11 11:36:38;;;;;;;9.10;6.53;;;20.80;96.70;;;;;;4989594;28;20476;-69
2022/09/11 11:39:16;;;;;;;11.23;6.95;;;20.70;96.70;;;;;;5029174;28;20037;-69
2022/09/11 11:41:47;;;;;;;7.72;6.25;;;20.70;96.60;;;;;;5022723;28;20481;-69
2022/09/11 11:44:30;;;;;;;8.57;6.03;;;20.80;96.50;;;;;;5022458;28;20025;-68
2022/09/11 11:47:00;;;;;;;7.88;6.20;;;20.90;96.50;;;;;;5030141;28;20029;-68
2022/09/11 11:50:01;;;;;;;11.77;6.97;;;21.00;96.70;;;;;;5024045;28;20030;-68
2022/09/11 11:52:48;;;;;;;10.45;6.57;;;21.10;96.50;;;;;;4995567;28;20087;-69
2022/09/11 11:55:34;;;;;;;10.07;7.20;;;21.10;96.70;;;;;;5028404;28;20030;-68
2022/09/11 11:58:09;;;;;;;9.85;6.00;;;21.20;96.60;;;;;;5026783;28;20026;-69
2022/09/11 12:00:40;;;;;;;7.53;6.00;;;21.30;96.00;;;;;;5004526;28;20033;-68
2022/09/11 12:03:20;;;;;;;6.78;5.15;;;21.20;95.80;;;;;;5023855;28;20032;-69
2022/09/11 12:05:46;;;;;;;8.27;5.30;;;21.30;95.60;;;;;;5021217;28;20508;-68
2022/09/11 12:08:13;;;;;;;8.65;5.03;;;21.30;95.50;;;;;;5020992;28;20034;-69
2022/09/11 12:10:58;;;;;;;8.23;5.47;;;21.40;95.40;;;;;;5023160;28;20026;-68
2022/09/11 12:13:35;;;;;;;7.75;5.18;;;21.50;95.20;;;;;;5031387;28;20025;-69
2022/09/11 12:16:34;;;;;;;7.28;5.28;;;21.70;95.20;;;;;;5028812;28;20025;-68
2022/09/11 12:19:04;;;;;;;5.78;4.68;;;21.90;95.60;;;;;;4980081;28;20041;-69
2022/09/11 12:21:30;;;;;;;7.45;4.88;;;22.10;95.00;;;;;;5029675;28;20044;-69
2022/09/11 12:23:56;;;;;;;7.10;4.53;;;22.20;94.90;;;;;;5007439;28;20033;-70
2022/09/11 12:26:26;;;;;;;7.47;4.85;;;22.30;94.60;;;;;;5038311;28;20125;-68
2022/09/11 12:29:19;;;;;;;9.40;4.43;;;22.40;94.40;;;;;;5050601;28;20464;-68
2022/09/11 12:31:50;;;;;;;7.10;5.35;;;22.40;94.00;;;;;;5026101;28;20069;-68
2022/09/11 12:34:45;;;;;;;6.05;4.25;;;22.30;94.00;;;;;;5032709;28;20029;-67
2022/09/11 12:37:37;;;;;;;6.88;4.70;;;22.30;94.10;;;;;;5026792;28;20034;-68
2022/09/11 12:40:17;;;;;;;6.43;4.38;;;22.20;94.00;;;;;;5016626;28;20034;-68
2022/09/11 12:42:43;;;;;;;7.15;5.13;;;22.20;94.00;;;;;;5024214;28;20022;-68
2022/09/11 12:45:31;;;;;;;5.90;5.30;;;22.20;94.00;;;;;;5017061;28;20053;-68
2022/09/11 12:48:06;;;;;;;7.50;4.90;;;22.10;94.20;;;;;;5006293;28;20080;-68
2022/09/11 12:50:32;;;;;;;6.63;5.10;;;22.10;94.20;;;;;;5027280;28;20034;-68
2022/09/11 12:53:01;;;;;;;8.60;5.82;;;22.10;94.30;;;;;;5022640;28;20068;-68
2022/09/11 12:55:50;;;;;;;7.35;4.78;;;22.10;94.00;;;;;;5025416;28;20041;-69
2022/09/11 12:58:18;;;;;;;7.20;4.53;;;22.10;93.80;;;;;;5025917;28;20030;-68
2022/09/11 13:00:50;;;;;;;8.43;4.55;;;22.10;93.60;;;;;;5028677;28;20054;-68
2022/09/11 13:03:26;;;;;;;9.55;5.03;;;22.00;93.30;;;;;;5008816;28;20567;-69